sensor_id;sensor_type;location;lat;lon;timestamp;pressure;altitude;pressure_sealevel;temperature;humidity
4346;BME280;2186;49.866;7.986;2022-10-26T00:01:22;100217.53;;;11.72;100.00
4346;BME280;2186;49.866;7.986;2022-10-26T00:03:48;100203.97;;;11.27;100.00
4346;BME280;2186;49.866;7.986;2022-10-26T00:06:20;100197.63;;;11.31;100.00
4346;BME280;2186;49.866;7.986;2022-10-26T00:08:47;100206.78;;;11.49;100.00
4346;BME280;2186;49.866;7.986;2022-10-26T00:11:14;100209.28;;;12.06;100.00
4346;BME280;2186;49.866;7.986;2022-10-26T00:13:41;100228.91;;;12.27;100.00
4346;BME280;2186;49.866;7.986;2022-10-26T00:16:22;100232.56;;;12.25;100.00
4346;BME280;2186;49.866;7.986;2022-10-26T00:18:49;100239.16;;;12.14;100.00
4346;BME280;2186;49.866;7.986;2022-10-26T00:21:16;100242.00;;;12.33;100.00
4346;BME280;2186;49.866;7.986;2022-10-26T00:23:43;100235.13;;;12.28;100.00
4346;BME280;2186;49.866;7.986;2022-10-26T00:26:09;100235.00;;;12.31;100.00
4346;BME280;2186;49.866;7.986;2022-10-26T00:28:36;100242.84;;;12.35;100.00
4346;BME280;2186;49.866;7.986;2022-10-26T00:31:07;100252.53;;;12.38;100.00
4346;BME280;2186;49.866;7.986;2022-10-26T00:33:34;100254.25;;;12.39;100.00
4346;BME280;2186;49.866;7.986;2022-10-26T00:36:01;100234.78;;;12.60;100.00
4346;BME280;2186;49.866;7.986;2022-10-26T00:38:27;100216.50;;;12.51;100.00
4346;BME280;2186;49.866;7.986;2022-10-26T00:40:54;100208.63;;;12.48;100.00
4346;BME280;2186;49.866;7.986;2022-10-26T00:45:54;100224.19;;;12.35;100.00
4346;BME280;2186;49.866;7.986;2022-10-26T00:48:24;100231.47;;;12.30;100.00
4346;BME280;2186;49.866;7.986;2022-10-26T00:50:52;100238.47;;;12.33;100.00
4346;BME280;2186;49.866;7.986;2022-10-26T00:53:19;100243.31;;;12.46;100.00
4346;BME280;2186;49.866;7.986;2022-10-26T00:55:49;100246.31;;;12.37;100.00
4346;BME280;2186;49.866;7.986;2022-10-26T00:58:16;100257.47;;;12.49;100.00
4346;BME280;2186;49.866;7.986;2022-10-26T01:00:43;100266.44;;;12.46;100.00
4346;BME280;2186;49.866;7.986;2022-10-26T01:03:10;100266.78;;;12.37;100.00
4346;BME280;2186;49.866;7.986;2022-10-26T01:05:39;100257.31;;;12.28;100.00
4346;BME280;2186;49.866;7.986;2022-10-26T01:08:07;100241.22;;;11.81;100.00
4346;BME280;2186;49.866;7.986;2022-10-26T01:10:35;100236.09;;;12.00;100.00
4346;BME280;2186;49.866;7.986;2022-10-26T01:13:03;100231.03;;;12.18;100.00
4346;BME280;2186;49.866;7.986;2022-10-26T01:16:01;100232.41;;;12.29;100.00
4346;BME280;2186;49.866;7.986;2022-10-26T01:18:49;100222.16;;;12.42;100.00
4346;BME280;2186;49.866;7.986;2022-10-26T01:21:23;100219.22;;;12.50;100.00
4346;BME280;2186;49.866;7.986;2022-10-26T01:24:07;100224.81;;;12.42;100.00
4346;BME280;2186;49.866;7.986;2022-10-26T01:27:00;100221.69;;;12.54;100.00
4346;BME280;2186;49.866;7.986;2022-10-26T01:29:54;100219.91;;;12.55;100.00
4346;BME280;2186;49.866;7.986;2022-10-26T01:35:47;100224.56;;;12.50;100.00
4346;BME280;2186;49.866;7.986;2022-10-26T01:41:03;100211.84;;;12.56;100.00
4346;BME280;2186;49.866;7.986;2022-10-26T01:43:34;100207.56;;;12.52;100.00
4346;BME280;2186;49.866;7.986;2022-10-26T01:46:03;100206.63;;;12.53;100.00
4346;BME280;2186;49.866;7.986;2022-10-26T01:48:33;100210.16;;;12.54;100.00
4346;BME280;2186;49.866;7.986;2022-10-26T01:51:00;100210.03;;;12.57;100.00
4346;BME280;2186;49.866;7.986;2022-10-26T01:53:28;100210.91;;;12.57;100.00
4346;BME280;2186;49.866;7.986;2022-10-26T01:55:55;100217.13;;;12.58;100.00
4346;BME280;2186;49.866;7.986;2022-10-26T02:07:02;100212.31;;;12.44;100.00
4346;BME280;2186;49.866;7.986;2022-10-26T02:12:20;100206.16;;;12.42;100.00
4346;BME280;2186;49.866;7.986;2022-10-26T02:15:26;100182.34;;;12.37;100.00
4346;BME280;2186;49.866;7.986;2022-10-26T02:20:50;100164.72;;;12.33;100.00
4346;BME280;2186;49.866;7.986;2022-10-26T02:23:21;100159.16;;;12.39;100.00
4346;BME280;2186;49.866;7.986;2022-10-26T02:25:55;100162.38;;;12.49;100.00
4346;BME280;2186;49.866;7.986;2022-10-26T02:28:27;100157.78;;;12.53;100.00
4346;BME280;2186;49.866;7.986;2022-10-26T02:30:57;100158.69;;;12.52;100.00
4346;BME280;2186;49.866;7.986;2022-10-26T02:33:26;100158.91;;;12.45;100.00
4346;BME280;2186;49.866;7.986;2022-10-26T02:35:57;100159.38;;;12.33;100.00
4346;BME280;2186;49.866;7.986;2022-10-26T02:38:27;100163.16;;;12.51;100.00
4346;BME280;2186;49.866;7.986;2022-10-26T02:40:56;100172.78;;;12.55;100.00
4346;BME280;2186;49.866;7.986;2022-10-26T02:43:23;100173.59;;;12.57;100.00
4346;BME280;2186;49.866;7.986;2022-10-26T02:45:55;100181.47;;;12.60;100.00
4346;BME280;2186;49.866;7.986;2022-10-26T02:48:23;100178.16;;;12.77;100.00
4346;BME280;2186;49.866;7.986;2022-10-26T02:53:29;100182.50;;;12.80;100.00
4346;BME280;2186;49.866;7.986;2022-10-26T02:55:59;100181.75;;;12.76;100.00
4346;BME280;2186;49.866;7.986;2022-10-26T02:58:32;100186.41;;;12.93;100.00
4346;BME280;2186;49.866;7.986;2022-10-26T03:01:02;100194.28;;;12.96;100.00
4346;BME280;2186;49.866;7.986;2022-10-26T03:03:29;100198.34;;;13.06;100.00
4346;BME280;2186;49.866;7.986;2022-10-26T03:05:55;100183.44;;;12.79;100.00
4346;BME280;2186;49.866;7.986;2022-10-26T03:08:22;100188.81;;;12.77;100.00
4346;BME280;2186;49.866;7.986;2022-10-26T03:10:49;100189.69;;;12.78;100.00
4346;BME280;2186;49.866;7.986;2022-10-26T03:13:15;100192.09;;;12.84;100.00
4346;BME280;2186;49.866;7.986;2022-10-26T03:15:41;100191.56;;;12.75;100.00
4346;BME280;2186;49.866;7.986;2022-10-26T03:18:09;100188.97;;;12.72;100.00
4346;BME280;2186;49.866;7.986;2022-10-26T03:20:35;100202.31;;;12.72;100.00
4346;BME280;2186;49.866;7.986;2022-10-26T03:23:02;100201.50;;;12.70;100.00
4346;BME280;2186;49.866;7.986;2022-10-26T03:25:28;100199.16;;;12.63;100.00
4346;BME280;2186;49.866;7.986;2022-10-26T03:27:56;100185.13;;;12.58;100.00
4346;BME280;2186;49.866;7.986;2022-10-26T03:30:23;100190.97;;;12.44;100.00
4346;BME280;2186;49.866;7.986;2022-10-26T03:32:49;100187.28;;;12.25;100.00
4346;BME280;2186;49.866;7.986;2022-10-26T03:35:16;100176.50;;;12.28;100.00
4346;BME280;2186;49.866;7.986;2022-10-26T03:37:42;100175.34;;;12.35;100.00
4346;BME280;2186;49.866;7.986;2022-10-26T03:40:09;100183.78;;;12.46;100.00
4346;BME280;2186;49.866;7.986;2022-10-26T03:42:36;100166.47;;;12.34;100.00
4346;BME280;2186;49.866;7.986;2022-10-26T03:45:03;100168.91;;;12.40;100.00
4346;BME280;2186;49.866;7.986;2022-10-26T03:47:29;100171.97;;;12.53;100.00
4346;BME280;2186;49.866;7.986;2022-10-26T03:49:56;100181.78;;;12.53;100.00
4346;BME280;2186;49.866;7.986;2022-10-26T03:52:22;100175.84;;;12.68;100.00
4346;BME280;2186;49.866;7.986;2022-10-26T03:54:50;100178.50;;;12.68;100.00
4346;BME280;2186;49.866;7.986;2022-10-26T03:57:17;100164.19;;;12.70;100.00
4346;BME280;2186;49.866;7.986;2022-10-26T03:59:43;100173.84;;;12.73;100.00
4346;BME280;2186;49.866;7.986;2022-10-26T04:02:10;100165.91;;;12.71;100.00
4346;BME280;2186;49.866;7.986;2022-10-26T04:04:37;100157.75;;;12.76;100.00
4346;BME280;2186;49.866;7.986;2022-10-26T04:07:03;100162.09;;;12.79;100.00
4346;BME280;2186;49.866;7.986;2022-10-26T04:09:30;100157.22;;;12.88;100.00
4346;BME280;2186;49.866;7.986;2022-10-26T04:11:56;100161.03;;;12.83;100.00
4346;BME280;2186;49.866;7.986;2022-10-26T04:14:22;100163.75;;;12.81;100.00
4346;BME280;2186;49.866;7.986;2022-10-26T04:16:49;100161.50;;;12.70;100.00
4346;BME280;2186;49.866;7.986;2022-10-26T04:19:15;100163.63;;;12.62;100.00
4346;BME280;2186;49.866;7.986;2022-10-26T04:21:41;100160.97;;;12.62;100.00
4346;BME280;2186;49.866;7.986;2022-10-26T04:24:09;100152.03;;;12.63;100.00
4346;BME280;2186;49.866;7.986;2022-10-26T04:26:36;100146.44;;;12.69;100.00
4346;BME280;2186;49.866;7.986;2022-10-26T04:29:02;100137.06;;;12.59;100.00
4346;BME280;2186;49.866;7.986;2022-10-26T04:31:32;100129.09;;;13.03;100.00
4346;BME280;2186;49.866;7.986;2022-10-26T04:33:58;100123.69;;;12.83;100.00
4346;BME280;2186;49.866;7.986;2022-10-26T04:36:25;100130.75;;;13.05;100.00
4346;BME280;2186;49.866;7.986;2022-10-26T04:38:51;100140.97;;;12.72;100.00
4346;BME280;2186;49.866;7.986;2022-10-26T04:41:17;100148.97;;;12.72;100.00
4346;BME280;2186;49.866;7.986;2022-10-26T04:43:44;100153.50;;;12.70;100.00
4346;BME280;2186;49.866;7.986;2022-10-26T04:46:10;100154.56;;;12.66;100.00
4346;BME280;2186;49.866;7.986;2022-10-26T04:48:42;100157.53;;;12.59;100.00
4346;BME280;2186;49.866;7.986;2022-10-26T04:51:08;100163.63;;;12.62;100.00
4346;BME280;2186;49.866;7.986;2022-10-26T04:53:34;100168.97;;;12.62;100.00
4346;BME280;2186;49.866;7.986;2022-10-26T04:56:01;100162.84;;;12.59;100.00
4346;BME280;2186;49.866;7.986;2022-10-26T04:58:28;100166.44;;;12.58;100.00
4346;BME280;2186;49.866;7.986;2022-10-26T05:00:54;100170.09;;;12.55;100.00
4346;BME280;2186;49.866;7.986;2022-10-26T05:03:21;100165.03;;;12.26;100.00
4346;BME280;2186;49.866;7.986;2022-10-26T05:05:47;100175.34;;;12.35;100.00
4346;BME280;2186;49.866;7.986;2022-10-26T05:08:14;100172.31;;;12.44;100.00
4346;BME280;2186;49.866;7.986;2022-10-26T05:10:41;100167.16;;;12.63;100.00
4346;BME280;2186;49.866;7.986;2022-10-26T05:13:08;100165.25;;;12.66;100.00
4346;BME280;2186;49.866;7.986;2022-10-26T05:15:34;100159.38;;;12.57;100.00
4346;BME280;2186;49.866;7.986;2022-10-26T05:18:03;100168.25;;;12.57;100.00
4346;BME280;2186;49.866;7.986;2022-10-26T05:20:33;100159.50;;;12.54;100.00
4346;BME280;2186;49.866;7.986;2022-10-26T05:23:02;100158.22;;;12.64;100.00
4346;BME280;2186;49.866;7.986;2022-10-26T05:25:31;100157.03;;;12.71;100.00
4346;BME280;2186;49.866;7.986;2022-10-26T05:28:04;100155.91;;;12.55;100.00
4346;BME280;2186;49.866;7.986;2022-10-26T05:30:31;100150.31;;;12.39;100.00
4346;BME280;2186;49.866;7.986;2022-10-26T05:32:59;100177.19;;;12.33;100.00
4346;BME280;2186;49.866;7.986;2022-10-26T05:35:27;100161.69;;;12.19;100.00
4346;BME280;2186;49.866;7.986;2022-10-26T05:37:54;100171.28;;;12.25;100.00
4346;BME280;2186;49.866;7.986;2022-10-26T05:40:20;100163.22;;;12.26;100.00
4346;BME280;2186;49.866;7.986;2022-10-26T05:42:47;100166.75;;;12.27;100.00
4346;BME280;2186;49.866;7.986;2022-10-26T05:45:14;100176.06;;;12.15;100.00
4346;BME280;2186;49.866;7.986;2022-10-26T05:47:41;100178.22;;;12.29;100.00
4346;BME280;2186;49.866;7.986;2022-10-26T05:50:09;100179.72;;;12.12;100.00
4346;BME280;2186;49.866;7.986;2022-10-26T05:52:40;100181.53;;;12.12;100.00
4346;BME280;2186;49.866;7.986;2022-10-26T05:55:07;100187.91;;;12.08;100.00
4346;BME280;2186;49.866;7.986;2022-10-26T05:57:35;100198.19;;;12.17;100.00
4346;BME280;2186;49.866;7.986;2022-10-26T06:00:10;100195.22;;;12.26;100.00
4346;BME280;2186;49.866;7.986;2022-10-26T06:05:22;100203.38;;;12.22;100.00
4346;BME280;2186;49.866;7.986;2022-10-26T06:07:51;100207.50;;;12.54;100.00
4346;BME280;2186;49.866;7.986;2022-10-26T06:10:18;100211.16;;;12.51;100.00
4346;BME280;2186;49.866;7.986;2022-10-26T06:12:45;100209.44;;;12.72;100.00
4346;BME280;2186;49.866;7.986;2022-10-26T06:15:20;100228.38;;;12.66;100.00
4346;BME280;2186;49.866;7.986;2022-10-26T06:18:00;100234.91;;;12.57;100.00
4346;BME280;2186;49.866;7.986;2022-10-26T06:20:38;100238.97;;;12.67;100.00
4346;BME280;2186;49.866;7.986;2022-10-26T06:23:36;100239.31;;;12.58;100.00
4346;BME280;2186;49.866;7.986;2022-10-26T06:26:22;100238.31;;;12.61;100.00
4346;BME280;2186;49.866;7.986;2022-10-26T06:29:17;100237.44;;;12.60;100.00
4346;BME280;2186;49.866;7.986;2022-10-26T06:31:47;100237.81;;;12.51;100.00
4346;BME280;2186;49.866;7.986;2022-10-26T06:34:36;100223.16;;;12.39;100.00
4346;BME280;2186;49.866;7.986;2022-10-26T06:37:06;100223.22;;;12.38;100.00
4346;BME280;2186;49.866;7.986;2022-10-26T06:39:35;100217.88;;;12.38;100.00
4346;BME280;2186;49.866;7.986;2022-10-26T06:42:04;100230.97;;;12.44;100.00
4346;BME280;2186;49.866;7.986;2022-10-26T06:44:30;100232.63;;;12.48;100.00
4346;BME280;2186;49.866;7.986;2022-10-26T06:47:05;100235.22;;;12.50;100.00
4346;BME280;2186;49.866;7.986;2022-10-26T06:50:05;100230.63;;;12.53;100.00
4346;BME280;2186;49.866;7.986;2022-10-26T06:52:40;100249.25;;;12.78;100.00
4346;BME280;2186;49.866;7.986;2022-10-26T06:55:14;100258.56;;;12.90;100.00
4346;BME280;2186;49.866;7.986;2022-10-26T06:57:42;100267.59;;;13.32;100.00
4346;BME280;2186;49.866;7.986;2022-10-26T07:00:22;100273.00;;;13.31;100.00
4346;BME280;2186;49.866;7.986;2022-10-26T07:02:50;100263.88;;;13.13;100.00
4346;BME280;2186;49.866;7.986;2022-10-26T07:05:17;100280.34;;;13.01;100.00
4346;BME280;2186;49.866;7.986;2022-10-26T07:07:45;100272.53;;;12.96;100.00
4346;BME280;2186;49.866;7.986;2022-10-26T07:10:13;100278.00;;;12.93;100.00
4346;BME280;2186;49.866;7.986;2022-10-26T07:12:40;100267.50;;;12.89;100.00
4346;BME280;2186;49.866;7.986;2022-10-26T07:15:06;100277.34;;;12.87;100.00
4346;BME280;2186;49.866;7.986;2022-10-26T07:17:44;100290.22;;;12.99;100.00
4346;BME280;2186;49.866;7.986;2022-10-26T07:20:12;100284.78;;;13.02;100.00
4346;BME280;2186;49.866;7.986;2022-10-26T07:22:39;100289.28;;;13.00;100.00
4346;BME280;2186;49.866;7.986;2022-10-26T07:25:06;100294.47;;;13.04;100.00
4346;BME280;2186;49.866;7.986;2022-10-26T07:27:33;100295.28;;;13.07;100.00
4346;BME280;2186;49.866;7.986;2022-10-26T07:30:00;100289.19;;;13.03;100.00
4346;BME280;2186;49.866;7.986;2022-10-26T07:32:27;100294.56;;;13.01;100.00
4346;BME280;2186;49.866;7.986;2022-10-26T07:34:53;100295.88;;;13.13;100.00
4346;BME280;2186;49.866;7.986;2022-10-26T07:37:20;100288.94;;;13.09;100.00
4346;BME280;2186;49.866;7.986;2022-10-26T07:39:46;100300.25;;;13.16;100.00
4346;BME280;2186;49.866;7.986;2022-10-26T07:42:13;100306.38;;;13.19;100.00
4346;BME280;2186;49.866;7.986;2022-10-26T07:44:40;100294.63;;;13.23;100.00
4346;BME280;2186;49.866;7.986;2022-10-26T07:47:06;100308.50;;;13.33;100.00
4346;BME280;2186;49.866;7.986;2022-10-26T07:49:33;100312.03;;;13.33;100.00
4346;BME280;2186;49.866;7.986;2022-10-26T07:51:59;100319.94;;;13.37;100.00
4346;BME280;2186;49.866;7.986;2022-10-26T07:54:26;100321.59;;;13.39;100.00
4346;BME280;2186;49.866;7.986;2022-10-26T07:56:52;100318.56;;;13.48;100.00
4346;BME280;2186;49.866;7.986;2022-10-26T07:59:19;100318.06;;;13.39;100.00
4346;BME280;2186;49.866;7.986;2022-10-26T08:01:45;100315.16;;;13.45;100.00
4346;BME280;2186;49.866;7.986;2022-10-26T08:04:11;100322.25;;;13.46;100.00
4346;BME280;2186;49.866;7.986;2022-10-26T08:06:38;100322.91;;;13.51;100.00
4346;BME280;2186;49.866;7.986;2022-10-26T08:09:04;100328.84;;;13.59;100.00
4346;BME280;2186;49.866;7.986;2022-10-26T08:11:31;100329.88;;;13.77;100.00
4346;BME280;2186;49.866;7.986;2022-10-26T08:13:57;100330.84;;;13.96;100.00
4346;BME280;2186;49.866;7.986;2022-10-26T08:16:23;100329.47;;;14.08;100.00
4346;BME280;2186;49.866;7.986;2022-10-26T08:18:50;100324.72;;;13.72;100.00
4346;BME280;2186;49.866;7.986;2022-10-26T08:21:17;100321.28;;;13.90;100.00
4346;BME280;2186;49.866;7.986;2022-10-26T08:23:55;100322.66;;;14.01;100.00
4346;BME280;2186;49.866;7.986;2022-10-26T08:26:21;100322.13;;;14.13;100.00
4346;BME280;2186;49.866;7.986;2022-10-26T08:28:48;100322.06;;;14.35;100.00
4346;BME280;2186;49.866;7.986;2022-10-26T08:31:15;100326.78;;;14.50;100.00
4346;BME280;2186;49.866;7.986;2022-10-26T08:33:41;100332.31;;;14.66;100.00
4346;BME280;2186;49.866;7.986;2022-10-26T08:36:10;100336.38;;;14.74;100.00
4346;BME280;2186;49.866;7.986;2022-10-26T08:38:37;100339.66;;;14.81;100.00
4346;BME280;2186;49.866;7.986;2022-10-26T08:41:07;100342.91;;;14.88;100.00
4346;BME280;2186;49.866;7.986;2022-10-26T08:44:04;100339.22;;;14.90;100.00
4346;BME280;2186;49.866;7.986;2022-10-26T08:46:37;100342.47;;;14.78;100.00
4346;BME280;2186;49.866;7.986;2022-10-26T08:49:26;100352.44;;;14.95;100.00
4346;BME280;2186;49.866;7.986;2022-10-26T08:51:58;100361.75;;;15.05;100.00
4346;BME280;2186;49.866;7.986;2022-10-26T08:54:43;100361.50;;;15.11;100.00
4346;BME280;2186;49.866;7.986;2022-10-26T09:00:04;100371.50;;;15.26;100.00
4346;BME280;2186;49.866;7.986;2022-10-26T09:02:31;100368.59;;;15.31;100.00
4346;BME280;2186;49.866;7.986;2022-10-26T09:04:58;100367.63;;;15.32;100.00
4346;BME280;2186;49.866;7.986;2022-10-26T09:07:52;100371.78;;;15.39;100.00
4346;BME280;2186;49.866;7.986;2022-10-26T09:10:45;100368.94;;;15.42;100.00
4346;BME280;2186;49.866;7.986;2022-10-26T09:19:40;100365.41;;;15.79;100.00
4346;BME280;2186;49.866;7.986;2022-10-26T09:24:33;100379.75;;;15.78;100.00
4346;BME280;2186;49.866;7.986;2022-10-26T09:29:52;100376.22;;;16.48;100.00
4346;BME280;2186;49.866;7.986;2022-10-26T09:32:21;100378.97;;;16.12;100.00
4346;BME280;2186;49.866;7.986;2022-10-26T09:34:52;100376.78;;;16.38;100.00
4346;BME280;2186;49.866;7.986;2022-10-26T09:37:25;100371.56;;;16.35;100.00
4346;BME280;2186;49.866;7.986;2022-10-26T09:42:54;100388.88;;;16.46;100.00
4346;BME280;2186;49.866;7.986;2022-10-26T09:47:51;100395.75;;;16.69;100.00
4346;BME280;2186;49.866;7.986;2022-10-26T09:50:35;100397.69;;;16.66;100.00
4346;BME280;2186;49.866;7.986;2022-10-26T09:53:02;100391.53;;;16.64;100.00
4346;BME280;2186;49.866;7.986;2022-10-26T09:55:30;100399.44;;;16.67;100.00
4346;BME280;2186;49.866;7.986;2022-10-26T09:58:00;100404.34;;;16.76;100.00
4346;BME280;2186;49.866;7.986;2022-10-26T10:00:29;100401.16;;;17.02;100.00
4346;BME280;2186;49.866;7.986;2022-10-26T10:02:58;100418.03;;;17.22;100.00
4346;BME280;2186;49.866;7.986;2022-10-26T10:05:28;100413.56;;;17.05;100.00
4346;BME280;2186;49.866;7.986;2022-10-26T10:08:18;100414.88;;;17.46;100.00
4346;BME280;2186;49.866;7.986;2022-10-26T10:11:01;100419.28;;;17.32;100.00
4346;BME280;2186;49.866;7.986;2022-10-26T10:13:31;100422.81;;;17.32;100.00
4346;BME280;2186;49.866;7.986;2022-10-26T10:16:11;100428.19;;;17.32;100.00
4346;BME280;2186;49.866;7.986;2022-10-26T10:18:52;100425.69;;;17.29;100.00
4346;BME280;2186;49.866;7.986;2022-10-26T10:21:19;100431.31;;;17.40;100.00
4346;BME280;2186;49.866;7.986;2022-10-26T10:23:50;100432.22;;;17.41;100.00
4346;BME280;2186;49.866;7.986;2022-10-26T10:26:19;100427.41;;;17.30;100.00
4346;BME280;2186;49.866;7.986;2022-10-26T10:28:59;100434.53;;;17.31;100.00
4346;BME280;2186;49.866;7.986;2022-10-26T10:31:28;100439.94;;;17.47;100.00
4346;BME280;2186;49.866;7.986;2022-10-26T10:33:55;100437.25;;;17.63;100.00
4346;BME280;2186;49.866;7.986;2022-10-26T10:36:24;100431.59;;;17.52;100.00
4346;BME280;2186;49.866;7.986;2022-10-26T10:38:52;100432.94;;;17.60;100.00
4346;BME280;2186;49.866;7.986;2022-10-26T10:41:31;100436.53;;;17.76;100.00
4346;BME280;2186;49.866;7.986;2022-10-26T10:44:07;100439.22;;;18.24;100.00
4346;BME280;2186;49.866;7.986;2022-10-26T10:46:39;100455.03;;;17.98;100.00
4346;BME280;2186;49.866;7.986;2022-10-26T10:49:17;100453.13;;;18.00;100.00
4346;BME280;2186;49.866;7.986;2022-10-26T10:51:45;100461.38;;;17.97;100.00
4346;BME280;2186;49.866;7.986;2022-10-26T10:54:34;100461.28;;;17.99;100.00
4346;BME280;2186;49.866;7.986;2022-10-26T11:05:23;100471.50;;;17.92;100.00
4346;BME280;2186;49.866;7.986;2022-10-26T11:08:00;100471.25;;;18.13;100.00
4346;BME280;2186;49.866;7.986;2022-10-26T11:10:33;100464.91;;;18.29;100.00
4346;BME280;2186;49.866;7.986;2022-10-26T11:13:09;100468.19;;;18.34;100.00
4346;BME280;2186;49.866;7.986;2022-10-26T11:15:40;100465.56;;;18.33;100.00
4346;BME280;2186;49.866;7.986;2022-10-26T11:18:17;100456.91;;;18.28;100.00
4346;BME280;2186;49.866;7.986;2022-10-26T11:20:52;100453.44;;;18.26;100.00
4346;BME280;2186;49.866;7.986;2022-10-26T11:23:46;100458.50;;;18.00;100.00
4346;BME280;2186;49.866;7.986;2022-10-26T11:26:21;100451.56;;;17.96;100.00
4346;BME280;2186;49.866;7.986;2022-10-26T11:29:00;100464.81;;;18.15;100.00
4346;BME280;2186;49.866;7.986;2022-10-26T11:31:41;100461.16;;;18.32;100.00
4346;BME280;2186;49.866;7.986;2022-10-26T11:37:55;100468.75;;;18.71;100.00
4346;BME280;2186;49.866;7.986;2022-10-26T11:42:45;100467.19;;;18.97;100.00
4346;BME280;2186;49.866;7.986;2022-10-26T11:45:22;100458.09;;;19.42;100.00
4346;BME280;2186;49.866;7.986;2022-10-26T11:48:01;100458.00;;;19.44;100.00
4346;BME280;2186;49.866;7.986;2022-10-26T11:50:35;100463.63;;;19.55;100.00
4346;BME280;2186;49.866;7.986;2022-10-26T11:53:11;100462.28;;;19.76;100.00
4346;BME280;2186;49.866;7.986;2022-10-26T11:55:40;100464.97;;;19.91;100.00
4346;BME280;2186;49.866;7.986;2022-10-26T11:58:09;100461.69;;;20.27;100.00
4346;BME280;2186;49.866;7.986;2022-10-26T12:00:47;100467.13;;;20.39;97.68
4346;BME280;2186;49.866;7.986;2022-10-26T12:03:18;100455.44;;;20.53;96.75
4346;BME280;2186;49.866;7.986;2022-10-26T12:05:50;100462.44;;;20.70;97.09
4346;BME280;2186;49.866;7.986;2022-10-26T12:08:38;100461.31;;;20.99;94.84
4346;BME280;2186;49.866;7.986;2022-10-26T12:13:50;100461.97;;;21.16;95.32
4346;BME280;2186;49.866;7.986;2022-10-26T12:19:10;100471.63;;;21.33;92.16
4346;BME280;2186;49.866;7.986;2022-10-26T12:21:38;100469.09;;;21.17;92.50
4346;BME280;2186;49.866;7.986;2022-10-26T12:26:54;100471.84;;;21.55;91.42
4346;BME280;2186;49.866;7.986;2022-10-26T12:29:27;100473.34;;;21.34;91.04
4346;BME280;2186;49.866;7.986;2022-10-26T12:31:54;100481.25;;;21.37;91.18
4346;BME280;2186;49.866;7.986;2022-10-26T12:39:38;100477.38;;;21.53;89.80
4346;BME280;2186;49.866;7.986;2022-10-26T12:45:00;100474.09;;;21.48;89.93
4346;BME280;2186;49.866;7.986;2022-10-26T13:03:48;100480.03;;;21.79;89.28
4346;BME280;2186;49.866;7.986;2022-10-26T13:09:27;100481.22;;;21.75;89.05
4346;BME280;2186;49.866;7.986;2022-10-26T13:11:55;100482.53;;;21.82;89.57
4346;BME280;2186;49.866;7.986;2022-10-26T13:14:25;100489.78;;;21.94;88.62
4346;BME280;2186;49.866;7.986;2022-10-26T13:16:53;100478.06;;;21.94;89.10
4346;BME280;2186;49.866;7.986;2022-10-26T13:19:23;100484.00;;;21.99;88.75
4346;BME280;2186;49.866;7.986;2022-10-26T13:21:51;100484.75;;;22.01;88.49
4346;BME280;2186;49.866;7.986;2022-10-26T13:24:21;100495.72;;;21.86;88.04
4346;BME280;2186;49.866;7.986;2022-10-26T13:29:31;100496.91;;;21.95;87.73
4346;BME280;2186;49.866;7.986;2022-10-26T13:31:58;100497.88;;;21.94;87.72
4346;BME280;2186;49.866;7.986;2022-10-26T13:34:28;100503.44;;;21.80;88.06
4346;BME280;2186;49.866;7.986;2022-10-26T13:37:11;100500.50;;;21.83;87.98
4346;BME280;2186;49.866;7.986;2022-10-26T13:39:42;100497.03;;;21.94;87.71
4346;BME280;2186;49.866;7.986;2022-10-26T13:42:25;100508.91;;;22.04;86.29
4346;BME280;2186;49.866;7.986;2022-10-26T13:47:40;100496.91;;;22.08;87.19
4346;BME280;2186;49.866;7.986;2022-10-26T13:50:15;100504.34;;;22.04;87.17
4346;BME280;2186;49.866;7.986;2022-10-26T13:52:49;100503.03;;;22.23;86.12
4346;BME280;2186;49.866;7.986;2022-10-26T13:55:25;100500.50;;;22.08;86.82
4346;BME280;2186;49.866;7.986;2022-10-26T13:58:04;100506.94;;;22.18;86.88
4346;BME280;2186;49.866;7.986;2022-10-26T14:00:35;100500.50;;;22.08;86.64
4346;BME280;2186;49.866;7.986;2022-10-26T14:03:12;100506.19;;;22.16;87.42
4346;BME280;2186;49.866;7.986;2022-10-26T14:05:45;100503.31;;;22.07;87.40
4346;BME280;2186;49.866;7.986;2022-10-26T14:08:16;100513.91;;;22.10;87.68
4346;BME280;2186;49.866;7.986;2022-10-26T14:10:46;100516.91;;;21.93;87.92
4346;BME280;2186;49.866;7.986;2022-10-26T14:13:17;100515.41;;;22.01;87.89
4346;BME280;2186;49.866;7.986;2022-10-26T14:15:46;100521.28;;;22.08;87.81
4346;BME280;2186;49.866;7.986;2022-10-26T14:18:17;100526.69;;;22.08;86.76
4346;BME280;2186;49.866;7.986;2022-10-26T14:23:36;100530.13;;;22.23;86.21
4346;BME280;2186;49.866;7.986;2022-10-26T14:26:03;100536.81;;;22.30;85.87
4346;BME280;2186;49.866;7.986;2022-10-26T14:28:32;100538.41;;;22.08;87.15
4346;BME280;2186;49.866;7.986;2022-10-26T14:31:20;100536.53;;;22.22;86.06
4346;BME280;2186;49.866;7.986;2022-10-26T14:33:47;100539.00;;;22.25;85.19
4346;BME280;2186;49.866;7.986;2022-10-26T14:36:14;100538.06;;;22.13;85.63
4346;BME280;2186;49.866;7.986;2022-10-26T14:38:46;100545.19;;;22.01;86.31
4346;BME280;2186;49.866;7.986;2022-10-26T14:41:16;100542.69;;;21.98;86.93
4346;BME280;2186;49.866;7.986;2022-10-26T14:43:43;100546.06;;;21.89;87.24
4346;BME280;2186;49.866;7.986;2022-10-26T14:46:15;100547.16;;;21.74;87.36
4346;BME280;2186;49.866;7.986;2022-10-26T14:48:50;100548.88;;;21.87;87.42
4346;BME280;2186;49.866;7.986;2022-10-26T14:51:19;100552.91;;;21.82;87.02
4346;BME280;2186;49.866;7.986;2022-10-26T14:53:49;100544.78;;;21.82;86.83
4346;BME280;2186;49.866;7.986;2022-10-26T14:56:20;100550.72;;;21.62;87.29
4346;BME280;2186;49.866;7.986;2022-10-26T14:58:47;100549.63;;;21.64;87.98
4346;BME280;2186;49.866;7.986;2022-10-26T15:03:46;100553.75;;;21.57;87.82
4346;BME280;2186;49.866;7.986;2022-10-26T15:06:29;100560.44;;;21.51;88.22
4346;BME280;2186;49.866;7.986;2022-10-26T15:08:58;100569.03;;;21.58;88.27
4346;BME280;2186;49.866;7.986;2022-10-26T15:11:28;100567.81;;;21.49;88.91